Frontier Phoenix — HOQV — position and weather

sailwx.info

Track history (hours):
 
Tides and Currents Weather Stations Pressure Air Temp Water Temp Dewpoint Dewpoint Depression Visibility Wind Speed Wind Dir Waves Ship Positions

Frontier Phoenix

Last reported at 2017-Oct-01 18:38 UTC. Time now 2017-Nov-24 07:38 UTC.
Position N 08°28' W 014°17'.
Warning: this ship's position is 53 days out of date.

Length 292 m; draft 9 m.

Type: Cargo ship. MMSI: 355979000.

Date/timePositionNaut miles runAvg speedWind from/ knotsBaromVisibWave heightAir tempDewpointWater temp
2017-Oct-01 18:38N 08°28' W 014°17'311.1
2017-Oct-01 18:22N 08°29' W 014°20'  
2017-Sep-25 07:38N 26°34' W 015°53'410.9
2017-Sep-25 07:14N 26°37' W 015°50'510.8
2017-Sep-25 06:45N 26°42' W 015°48'1410.5
2017-Sep-25 05:25N 26°54' W 015°40'610.3
2017-Sep-25 04:48N 27°00' W 015°37'610.6
2017-Sep-25 04:14N 27°05' W 015°34'311.1
2017-Sep-25 03:58N 27°08' W 015°33'711.5
2017-Sep-25 03:24N 27°14' W 015°29'811.6
2017-Sep-25 02:41N 27°21' W 015°25'412.2
2017-Sep-25 02:22N 27°25' W 015°23'512.5
2017-Sep-25 01:58N 27°29' W 015°20'612.0
2017-Sep-25 01:30N 27°34' W 015°17'612.1
2017-Sep-25 01:00N 27°39' W 015°14'611.9
2017-Sep-25 00:30N 27°45' W 015°11'611.4
2017-Sep-25 00:00N 27°50' W 015°08'510.9
2017-Sep-24 23:30N 27°55' W 015°06'611.8
2017-Sep-24 23:00N 28°00' W 015°03'612.1
2017-Sep-24 22:30N 28°06' W 015°01'611.9
2017-Sep-24 22:00N 28°12' W 014°59'611.7
2017-Sep-24 21:30N 28°17' W 014°57'611.8
2017-Sep-24 21:00N 28°22' W 014°54'611.8
2017-Sep-24 20:30N 28°27' W 014°50'611.5
2017-Sep-24 20:00N 28°32' W 014°46'611.6
2017-Sep-24 19:30N 28°36' W 014°42'611.8
2017-Sep-24 19:00N 28°41' W 014°38'612.0
2017-Sep-24 18:30N 28°46' W 014°34'612.0
2017-Sep-24 18:00N 28°51' W 014°30'611.7
2017-Sep-24 17:30N 28°55' W 014°26'611.5
2017-Sep-24 17:00N 28°60' W 014°22'611.4
2017-Sep-24 16:30N 29°05' W 014°18'611.8
2017-Sep-24 15:58N 29°10' W 014°14'611.8
2017-Sep-24 15:27N 29°15' W 014°09'511.9
2017-Sep-24 15:00N 29°19' W 014°06'611.6
2017-Sep-24 14:27N 29°24' W 014°01'511.3
2017-Sep-24 14:00N 29°28' W 013°58'511.1
2017-Sep-24 13:30N 29°32' W 013°54'1211.5
2017-Sep-24 12:30N 29°42' W 013°46'611.6
2017-Sep-24 12:00N 29°46' W 013°42'1411.6
2017-Sep-24 10:51N 29°57' W 013°33'1011.8
2017-Sep-24 10:01N 30°04' W 013°25'211.5
2017-Sep-24 09:52N 30°05' W 013°24'511.6
2017-Sep-24 09:24N 30°09' W 013°19'1411.8
2017-Sep-24 08:12N 30°19' W 013°08'512.1
2017-Sep-24 07:49N 30°22' W 013°04'412.0
2017-Sep-24 07:29N 30°25' W 013°00'611.7
2017-Sep-24 07:00N 30°29' W 012°56'611.4
2017-Sep-24 06:30N 30°33' W 012°51'611.6
2017-Sep-24 06:00N 30°37' W 012°46'611.8
2017-Sep-24 05:30N 30°41' W 012°41'611.7
2017-Sep-24 05:00N 30°45' W 012°36'611.6
2017-Sep-24 04:30N 30°49' W 012°32'612.1
2017-Sep-24 04:00N 30°54' W 012°27'611.9
2017-Sep-24 03:30N 30°58' W 012°21'612.6
2017-Sep-24 03:00N 31°02' W 012°16'713.3
2017-Sep-24 02:30N 31°07' W 012°11'713.7
2017-Sep-24 02:00N 31°12' W 012°05'713.7
2017-Sep-24 01:31N 31°16' W 011°59'713.7
2017-Sep-24 01:00N 31°21' W 011°54'713.8
2017-Sep-24 00:30N 31°26' W 011°48'813.6
2017-Sep-23 23:55N 31°32' W 011°41'613.5
2017-Sep-23 23:30N 31°35' W 011°36'1313.2
2017-Sep-23 22:30N 31°45' W 011°25'713.7
2017-Sep-23 22:00N 31°50' W 011°20'913.8
2017-Sep-23 21:22N 31°56' W 011°12'713.7
2017-Sep-23 20:50N 32°01' W 011°06'913.8
2017-Sep-23 20:09N 32°07' W 010°58'513.6
2017-Sep-23 19:45N 32°11' W 010°53'  
Track history (hours):
 
Tides and Currents Weather Stations Pressure Air Temp Water Temp Dewpoint Dewpoint Depression Visibility Wind Speed Wind Dir Waves Ship Positions

Frontier Phoenix

Last reported at 2017-Oct-01 18:38 UTC. Time now 2017-Nov-24 07:38 UTC.
Position N 08°28' W 014°17'.
Warning: this ship's position is 53 days out of date.

Length 292 m; draft 9 m.

Type: Cargo ship. MMSI: 355979000.

Date/timePositionNaut miles runAvg speedWind from/ knotsBaromVisibWave heightAir tempDewpointWater temp
2017-Oct-01 18:38N 08°28' W 014°17'311.1
2017-Oct-01 18:22N 08°29' W 014°20'  
2017-Sep-25 07:38N 26°34' W 015°53'410.9
2017-Sep-25 07:14N 26°37' W 015°50'510.8
2017-Sep-25 06:45N 26°42' W 015°48'1410.5
2017-Sep-25 05:25N 26°54' W 015°40'610.3
2017-Sep-25 04:48N 27°00' W 015°37'610.6
2017-Sep-25 04:14N 27°05' W 015°34'311.1
2017-Sep-25 03:58N 27°08' W 015°33'711.5
2017-Sep-25 03:24N 27°14' W 015°29'811.6
2017-Sep-25 02:41N 27°21' W 015°25'412.2
2017-Sep-25 02:22N 27°25' W 015°23'512.5
2017-Sep-25 01:58N 27°29' W 015°20'612.0
2017-Sep-25 01:30N 27°34' W 015°17'612.1
2017-Sep-25 01:00N 27°39' W 015°14'611.9
2017-Sep-25 00:30N 27°45' W 015°11'611.4
2017-Sep-25 00:00N 27°50' W 015°08'510.9
2017-Sep-24 23:30N 27°55' W 015°06'611.8
2017-Sep-24 23:00N 28°00' W 015°03'612.1
2017-Sep-24 22:30N 28°06' W 015°01'611.9
2017-Sep-24 22:00N 28°12' W 014°59'611.7
2017-Sep-24 21:30N 28°17' W 014°57'611.8
2017-Sep-24 21:00N 28°22' W 014°54'611.8
2017-Sep-24 20:30N 28°27' W 014°50'611.5
2017-Sep-24 20:00N 28°32' W 014°46'611.6
2017-Sep-24 19:30N 28°36' W 014°42'611.8
2017-Sep-24 19:00N 28°41' W 014°38'612.0
2017-Sep-24 18:30N 28°46' W 014°34'612.0
2017-Sep-24 18:00N 28°51' W 014°30'611.7
2017-Sep-24 17:30N 28°55' W 014°26'611.5
2017-Sep-24 17:00N 28°60' W 014°22'611.4
2017-Sep-24 16:30N 29°05' W 014°18'611.8
2017-Sep-24 15:58N 29°10' W 014°14'611.8
2017-Sep-24 15:27N 29°15' W 014°09'511.9
2017-Sep-24 15:00N 29°19' W 014°06'611.6
2017-Sep-24 14:27N 29°24' W 014°01'511.3
2017-Sep-24 14:00N 29°28' W 013°58'511.1
2017-Sep-24 13:30N 29°32' W 013°54'1211.5
2017-Sep-24 12:30N 29°42' W 013°46'611.6
2017-Sep-24 12:00N 29°46' W 013°42'1411.6
2017-Sep-24 10:51N 29°57' W 013°33'1011.8
2017-Sep-24 10:01N 30°04' W 013°25'211.5
2017-Sep-24 09:52N 30°05' W 013°24'511.6
2017-Sep-24 09:24N 30°09' W 013°19'1411.8
2017-Sep-24 08:12N 30°19' W 013°08'512.1
2017-Sep-24 07:49N 30°22' W 013°04'412.0
2017-Sep-24 07:29N 30°25' W 013°00'611.7
2017-Sep-24 07:00N 30°29' W 012°56'611.4
2017-Sep-24 06:30N 30°33' W 012°51'611.6
2017-Sep-24 06:00N 30°37' W 012°46'611.8
2017-Sep-24 05:30N 30°41' W 012°41'611.7
2017-Sep-24 05:00N 30°45' W 012°36'611.6
2017-Sep-24 04:30N 30°49' W 012°32'612.1
2017-Sep-24 04:00N 30°54' W 012°27'611.9
2017-Sep-24 03:30N 30°58' W 012°21'612.6
2017-Sep-24 03:00N 31°02' W 012°16'713.3
2017-Sep-24 02:30N 31°07' W 012°11'713.7
2017-Sep-24 02:00N 31°12' W 012°05'713.7
2017-Sep-24 01:31N 31°16' W 011°59'713.7
2017-Sep-24 01:00N 31°21' W 011°54'713.8
2017-Sep-24 00:30N 31°26' W 011°48'813.6
2017-Sep-23 23:55N 31°32' W 011°41'613.5
2017-Sep-23 23:30N 31°35' W 011°36'1313.2
2017-Sep-23 22:30N 31°45' W 011°25'713.7
2017-Sep-23 22:00N 31°50' W 011°20'913.8
2017-Sep-23 21:22N 31°56' W 011°12'713.7
2017-Sep-23 20:50N 32°01' W 011°06'913.8
2017-Sep-23 20:09N 32°07' W 010°58'513.6
2017-Sep-23 19:45N 32°11' W 010°53'  

Dump ship's entire track history